Time;durP1;ratioP1;P1;durP2;ratioP2;P2;SDS_P1;SDS_P2;PMS_P1;PMS_P2;Temp;Humidity;BMP_temperature;BMP_pressure;BME280_temperature;BME280_humidity;BME280_pressure;Samples;Min_cycle;Max_cycle;Signal;HPM_P1;HPM_P2
2023/07/01 00:01:17;;;;;;;;;;;;;;;18.53;79.23;92356.28;2049279;70;20143;-79
2023/07/01 00:03:46;;;;;;;;;;;;;;;18.56;78.80;92354.22;2049108;70;20047;-78
2023/07/01 00:09:43;;;;;;;;;;;;;;;18.61;78.03;92350.06;2049225;70;20131;-77
2023/07/01 00:12:08;;;;;;;;;;;;;;;18.54;78.78;92349.16;2049154;70;20051;-79
2023/07/01 00:14:35;;;;;;;;;;;;;;;18.53;78.72;92345.59;2045866;70;20082;-76
2023/07/01 00:17:02;;;;;;;;;;;;;;;18.57;78.11;92338.56;2048109;70;20109;-77
2023/07/01 00:19:27;;;;;;;;;;;;;;;18.57;78.25;92332.84;2049130;70;20067;-78
2023/07/01 00:21:53;;;;;;;;;;;;;;;18.55;78.45;92336.34;2049255;70;20421;-78
2023/07/01 00:24:18;;;;;;;;;;;;;;;18.56;77.92;92334.97;2048633;70;20144;-77
2023/07/01 00:26:44;;;;;;;;;;;;;;;18.48;78.72;92331.91;2048674;70;20117;-78
2023/07/01 00:29:09;;;;;;;;;;;;;;;18.49;78.29;92325.53;2049055;70;20047;-77
2023/07/01 00:31:35;;;;;;;;;;;;;;;18.61;78.02;92327.25;2048642;70;20055;-79
2023/07/01 00:34:01;;;;;;;;;;;;;;;18.49;78.52;92331.22;2045898;70;20402;-78
2023/07/01 00:36:26;;;;;;;;;;;;;;;18.50;79.05;92326.97;2048281;70;20051;-77
2023/07/01 00:38:52;;;;;;;;;;;;;;;18.47;79.10;92331.19;2047744;70;20051;-78
2023/07/01 00:41:20;;;;;;;;;;;;;;;18.40;79.43;92323.88;2049119;70;20086;-78
2023/07/01 00:43:45;;;;;;;;;;;;;;;18.39;79.70;92333.09;2048801;70;20478;-79
2023/07/01 00:46:11;;;;;;;;;;;;;;;18.47;78.90;92330.47;2048580;69;20117;-79
2023/07/01 00:48:39;;;;;;;;;;;;;;;18.45;78.68;92331.13;2050537;70;20479;-78
2023/07/01 00:51:04;;;;;;;;;;;;;;;18.49;78.32;92331.22;2055015;70;20090;-78
2023/07/01 00:57:01;;;;;;;;;;;;;;;18.41;79.53;92327.44;2054789;69;20092;-78
2023/07/01 01:02:59;;;;;;;;;;;;;;;18.40;78.96;92328.84;2054862;69;20046;-78
2023/07/01 01:05:45;;;;;;;;;;;;;;;18.29;79.14;92322.91;2054575;70;20074;-78
2023/07/01 01:08:11;;;;;;;;;;;;;;;18.31;78.18;92327.19;2067829;69;20086;-77
2023/07/01 01:10:39;;;;;;;;;;;;;;;18.24;79.09;92327.03;2054891;69;20056;-77
2023/07/01 01:13:06;;;;;;;;;;;;;;;18.18;79.17;92326.13;2055937;70;20050;-77
2023/07/01 01:15:32;;;;;;;;;;;;;;;18.32;78.80;92328.63;2055010;70;20137;-77
2023/07/01 01:17:59;;;;;;;;;;;;;;;18.33;78.40;92325.13;2067697;69;20053;-79
2023/07/01 01:20:30;;;;;;;;;;;;;;;18.34;78.80;92318.03;2067971;69;20174;-78
2023/07/01 01:22:57;;;;;;;;;;;;;;;18.34;79.14;92329.44;2055884;70;20046;-78
2023/07/01 01:25:34;;;;;;;;;;;;;;;18.33;79.12;92318.72;2068411;69;20082;-78
2023/07/01 01:28:00;;;;;;;;;;;;;;;18.43;79.18;92327.50;2055285;70;20046;-78
2023/07/01 01:30:32;;;;;;;;;;;;;;;18.38;79.64;92326.69;2055244;69;20430;-78
2023/07/01 01:32:58;;;;;;;;;;;;;;;18.35;79.30;92318.75;2055492;70;20051;-78
2023/07/01 01:35:24;;;;;;;;;;;;;;;18.27;79.32;92322.81;2055731;70;20139;-78
2023/07/01 01:38:10;;;;;;;;;;;;;;;18.07;80.66;92327.28;2067840;69;20066;-77
2023/07/01 01:40:45;;;;;;;;;;;;;;;18.29;78.15;92325.75;2065181;69;20422;-77
2023/07/01 01:43:17;;;;;;;;;;;;;;;18.31;78.83;92324.34;2067440;69;20070;-78
2023/07/01 01:45:44;;;;;;;;;;;;;;;18.25;79.03;92317.09;2055273;70;20178;-78
2023/07/01 01:48:11;;;;;;;;;;;;;;;18.24;79.55;92318.50;2055491;69;20140;-78
2023/07/01 01:50:39;;;;;;;;;;;;;;;18.26;79.54;92315.69;2055539;69;20051;-78
2023/07/01 01:53:05;;;;;;;;;;;;;;;18.26;79.88;92321.38;2055575;70;20069;-78
2023/07/01 01:55:31;;;;;;;;;;;;;;;18.35;79.46;92318.75;2068763;69;20062;-78
2023/07/01 01:57:59;;;;;;;;;;;;;;;18.18;80.17;92318.31;2055933;69;20099;-77
2023/07/01 02:00:27;;;;;;;;;;;;;;;17.92;81.35;92324.03;2056547;69;20046;-77
2023/07/01 02:02:53;;;;;;;;;;;;;;;17.75;81.83;92328.53;2055858;69;20512;-77
2023/07/01 02:05:20;;;;;;;;;;;;;;;17.76;83.00;92324.28;2068715;69;20051;-78
2023/07/01 02:07:50;;;;;;;;;;;;;;;18.08;80.68;92326.59;2068576;69;20055;-78
2023/07/01 02:10:16;;;;;;;;;;;;;;;18.19;80.22;92319.03;2068229;69;20145;-77
2023/07/01 02:12:43;;;;;;;;;;;;;;;17.92;81.87;92312.66;2068787;69;20142;-77
2023/07/01 02:15:10;;;;;;;;;;;;;;;18.08;80.80;92309.50;2055766;69;20054;-78
2023/07/01 02:17:36;;;;;;;;;;;;;;;18.13;80.02;92310.34;2065692;69;20398;-77
2023/07/01 02:20:03;;;;;;;;;;;;;;;18.16;80.18;92315.41;2054773;70;20563;-77
2023/07/01 02:22:29;;;;;;;;;;;;;;;18.11;80.46;92313.88;2055189;69;20047;-77
2023/07/01 02:24:55;;;;;;;;;;;;;;;18.14;79.87;92303.22;2053975;70;20128;-77
2023/07/01 02:27:22;;;;;;;;;;;;;;;18.23;79.60;92302.06;2067891;69;20444;-78
2023/07/01 02:29:49;;;;;;;;;;;;;;;18.18;80.34;92306.91;2068337;69;20063;-77
2023/07/01 02:32:15;;;;;;;;;;;;;;;18.14;80.03;92309.66;2055374;69;20078;-77
2023/07/01 02:34:43;;;;;;;;;;;;;;;18.17;79.83;92314.03;2055073;70;20058;-78
2023/07/01 02:37:09;;;;;;;;;;;;;;;18.15;80.61;92301.84;2065666;69;20051;-77
2023/07/01 02:39:34;;;;;;;;;;;;;;;18.21;79.81;92304.84;2055432;69;20057;-77
2023/07/01 02:42:00;;;;;;;;;;;;;;;18.27;79.66;92311.44;2068329;69;20050;-77
2023/07/01 02:44:26;;;;;;;;;;;;;;;18.21;79.73;92307.72;2055596;70;20048;-78
2023/07/01 02:46:52;;;;;;;;;;;;;;;18.25;78.75;92307.81;2055571;70;20080;-77
2023/07/01 02:49:20;;;;;;;;;;;;;;;18.26;79.00;92304.28;2055422;70;20497;-77
2023/07/01 02:51:46;;;;;;;;;;;;;;;18.19;79.74;92307.63;2068614;69;20050;-77
2023/07/01 02:54:11;;;;;;;;;;;;;;;18.20;79.95;92297.72;2055634;70;20054;-78
2023/07/01 02:56:36;;;;;;;;;;;;;;;18.11;80.31;92302.47;2055484;69;20063;-78
2023/07/01 02:59:03;;;;;;;;;;;;;;;18.19;79.54;92297.00;2067927;69;20050;-78
2023/07/01 03:01:30;;;;;;;;;;;;;;;18.21;79.04;92304.84;2065672;69;20108;-78
2023/07/01 03:03:56;;;;;;;;;;;;;;;18.06;79.94;92305.88;2055455;69;20082;-77
2023/07/01 03:06:21;;;;;;;;;;;;;;;18.03;80.41;92305.09;2068471;69;20093;-78
2023/07/01 03:08:47;;;;;;;;;;;;;;;18.07;80.10;92298.78;2068592;69;20050;-77
2023/07/01 03:11:12;;;;;;;;;;;;;;;17.99;79.65;92304.97;2055462;70;20472;-78
2023/07/01 03:13:38;;;;;;;;;;;;;;;18.00;79.92;92310.00;2068426;69;20466;-78
2023/07/01 03:16:06;;;;;;;;;;;;;;;18.06;79.10;92306.63;2068500;69;20086;-78
2023/07/01 03:18:34;;;;;;;;;;;;;;;18.02;79.46;92303.66;2055485;70;20441;-78
2023/07/01 03:21:00;;;;;;;;;;;;;;;18.04;79.01;92304.41;2068579;69;20054;-78
2023/07/01 03:23:27;;;;;;;;;;;;;;;17.97;79.00;92299.97;2068637;69;20118;-77
2023/07/01 03:25:52;;;;;;;;;;;;;;;17.93;79.40;92293.44;2055610;70;20138;-75
2023/07/01 03:31:48;;;;;;;;;;;;;;;17.91;79.87;92308.31;2055821;69;20049;-76
2023/07/01 03:34:15;;;;;;;;;;;;;;;17.82;79.82;92306.66;2055883;70;20133;-76
2023/07/01 03:36:41;;;;;;;;;;;;;;;17.83;79.61;92313.81;2055995;69;20237;-76
2023/07/01 03:39:06;;;;;;;;;;;;;;;17.90;78.83;92315.44;2069038;69;20496;-76
2023/07/01 03:41:32;;;;;;;;;;;;;;;17.82;79.73;92312.34;2055953;70;20050;-76
2023/07/01 03:43:57;;;;;;;;;;;;;;;17.91;78.68;92313.31;2055864;70;20057;-76
2023/07/01 03:46:22;;;;;;;;;;;;;;;17.92;78.81;92306.94;2055967;70;20051;-75
2023/07/01 03:48:48;;;;;;;;;;;;;;;17.85;79.43;92313.88;2055744;69;20054;-76
2023/07/01 03:51:15;;;;;;;;;;;;;;;17.81;79.12;92313.03;2055927;70;20620;-76
2023/07/01 03:53:40;;;;;;;;;;;;;;;17.88;78.35;92309.69;2055967;69;20141;-77
2023/07/01 03:56:06;;;;;;;;;;;;;;;17.70;79.46;92309.16;2055984;70;20051;-77
2023/07/01 03:58:32;;;;;;;;;;;;;;;17.67;79.78;92316.16;2056037;70;20057;-77
2023/07/01 04:00:57;;;;;;;;;;;;;;;17.77;79.07;92307.94;2055982;70;20152;-77
2023/07/01 04:03:23;;;;;;;;;;;;;;;17.76;79.14;92315.03;2055571;69;20147;-77
2023/07/01 04:05:51;;;;;;;;;;;;;;;17.74;78.57;92312.88;2055803;70;20053;-77
2023/07/01 04:08:17;;;;;;;;;;;;;;;17.72;78.50;92309.91;2055794;70;20100;-78
2023/07/01 04:10:43;;;;;;;;;;;;;;;17.71;78.80;92322.69;2055966;69;20167;-77
2023/07/01 04:13:10;;;;;;;;;;;;;;;17.71;78.95;92316.28;2055677;69;20558;-77
2023/07/01 04:15:35;;;;;;;;;;;;;;;17.68;78.70;92321.19;2055975;69;20073;-77
2023/07/01 04:18:01;;;;;;;;;;;;;;;17.72;77.96;92315.63;2055954;70;20046;-76
2023/07/01 04:20:26;;;;;;;;;;;;;;;17.75;77.81;92322.13;2055925;69;20112;-76
2023/07/01 04:22:52;;;;;;;;;;;;;;;17.73;76.67;92319.97;2055964;70;20110;-77
2023/07/01 04:25:17;;;;;;;;;;;;;;;17.70;77.97;92321.25;2055827;70;20106;-77
2023/07/01 04:27:43;;;;;;;;;;;;;;;17.76;77.69;92318.59;2055576;70;20466;-77
2023/07/01 04:30:10;;;;;;;;;;;;;;;17.71;77.89;92316.28;2055721;69;20054;-77
2023/07/01 04:32:36;;;;;;;;;;;;;;;17.69;77.38;92319.81;2055736;69;20054;-77
2023/07/01 04:35:01;;;;;;;;;;;;;;;17.57;78.29;92313.75;2055876;70;20530;-77
2023/07/01 04:37:27;;;;;;;;;;;;;;;17.53;79.02;92317.22;2068990;69;20470;-77
2023/07/01 04:39:53;;;;;;;;;;;;;;;17.58;77.85;92312.38;2056015;69;20430;-77
2023/07/01 04:42:18;;;;;;;;;;;;;;;17.64;77.92;92311.81;2068952;69;20054;-77
2023/07/01 04:44:44;;;;;;;;;;;;;;;17.65;77.73;92322.53;2056133;70;20470;-77
2023/07/01 04:47:11;;;;;;;;;;;;;;;17.61;78.27;92318.84;2055830;70;20054;-77
2023/07/01 04:49:37;;;;;;;;;;;;;;;17.60;77.92;92323.09;2055908;70;20047;-77
2023/07/01 04:52:02;;;;;;;;;;;;;;;17.48;78.73;92321.34;2055908;70;20049;-76
2023/07/01 04:54:28;;;;;;;;;;;;;;;17.46;78.58;92324.13;2055864;70;20137;-77
2023/07/01 04:56:53;;;;;;;;;;;;;;;17.61;77.38;92313.88;2055932;69;20046;-77
2023/07/01 04:59:19;;;;;;;;;;;;;;;17.66;77.44;92317.56;2055865;70;20103;-77
2023/07/01 05:01:44;;;;;;;;;;;;;;;17.67;77.48;92327.56;2055977;70;20046;-77
2023/07/01 05:04:10;;;;;;;;;;;;;;;17.60;78.19;92328.78;2055461;69;20421;-77
2023/07/01 05:06:35;;;;;;;;;;;;;;;17.58;78.26;92334.41;2055883;70;20082;-76
2023/07/01 05:09:02;;;;;;;;;;;;;;;17.59;78.26;92333.00;2055856;70;20057;-77
2023/07/01 05:11:28;;;;;;;;;;;;;;;17.58;77.92;92335.13;2055717;70;20050;-77
2023/07/01 05:13:53;;;;;;;;;;;;;;;17.52;78.54;92330.00;2055721;70;20096;-77
2023/07/01 05:16:19;;;;;;;;;;;;;;;17.56;78.96;92328.66;2068793;69;20047;-76
2023/07/01 05:18:44;;;;;;;;;;;;;;;17.69;78.30;92331.19;2055790;70;20092;-77
2023/07/01 05:21:10;;;;;;;;;;;;;;;17.74;78.26;92327.09;2055821;70;20149;-79
2023/07/01 05:23:38;;;;;;;;;;;;;;;17.83;77.77;92322.34;2055789;70;20056;-77
2023/07/01 05:26:03;;;;;;;;;;;;;;;17.98;77.55;92332.75;2055938;70;20141;-77
2023/07/01 05:28:28;;;;;;;;;;;;;;;17.90;78.26;92320.41;2055876;70;20471;-76
2023/07/01 05:30:54;;;;;;;;;;;;;;;18.00;77.93;92329.94;2055805;70;20054;-77
2023/07/01 05:33:19;;;;;;;;;;;;;;;18.11;77.16;92322.41;2055686;70;20058;-76
2023/07/01 05:35:45;;;;;;;;;;;;;;;18.23;76.75;92313.44;2055835;70;20070;-77
2023/07/01 05:38:11;;;;;;;;;;;;;;;18.25;77.77;92317.09;2055779;70;20058;-76
2023/07/01 05:40:37;;;;;;;;;;;;;;;18.27;78.31;92316.41;2055728;70;20097;-76
2023/07/01 05:43:03;;;;;;;;;;;;;;;18.27;78.51;92316.41;2055746;69;20485;-77
2023/07/01 05:45:28;;;;;;;;;;;;;;;18.33;78.24;92322.28;2055717;70;20049;-76
2023/07/01 05:47:54;;;;;;;;;;;;;;;18.42;77.91;92331.78;2055600;70;20054;-76
2023/07/01 05:50:19;;;;;;;;;;;;;;;18.52;76.80;92329.19;2055565;70;20053;-76
2023/07/01 05:52:44;;;;;;;;;;;;;;;18.47;75.60;92334.03;2055606;70;20499;-77
2023/07/01 05:58:38;;;;;;;;;;;;;;;18.37;76.40;92339.50;2055621;69;20137;-76
2023/07/01 06:01:04;;;;;;;;;;;;;;;18.59;74.71;92327.91;2055644;70;20047;-78
2023/07/01 06:03:30;;;;;;;;;;;;;;;18.41;74.97;92336.72;2055508;69;20047;-78
2023/07/01 06:05:55;;;;;;;;;;;;;;;18.60;74.27;92329.38;2068784;69;20079;-77
2023/07/01 06:08:20;;;;;;;;;;;;;;;18.57;74.79;92330.00;2055624;70;20063;-77
2023/07/01 06:10:46;;;;;;;;;;;;;;;18.82;74.11;92325.66;2055694;70;20050;-78
2023/07/01 06:13:11;;;;;;;;;;;;;;;18.91;73.54;92327.28;2055686;70;20046;-78
2023/07/01 06:15:37;;;;;;;;;;;;;;;18.97;75.02;92328.19;2055641;70;20141;-82
2023/07/01 06:18:02;;;;;;;;;;;;;;;19.12;74.03;92329.22;2055531;70;20046;-78
2023/07/01 06:20:28;;;;;;;;;;;;;;;19.18;73.85;92322.94;2055568;70;20090;-79
2023/07/01 06:22:53;;;;;;;;;;;;;;;19.20;73.05;92320.88;2055609;70;20462;-79
2023/07/01 06:25:19;;;;;;;;;;;;;;;19.28;71.37;92317.44;2055634;69;20486;-80
2023/07/01 06:27:44;;;;;;;;;;;;;;;19.43;71.55;92319.22;2055807;70;20136;-79
2023/07/01 06:30:10;;;;;;;;;;;;;;;19.39;72.46;92332.69;2068731;69;20154;-79
2023/07/01 06:32:35;;;;;;;;;;;;;;;19.48;71.60;92331.47;2055257;70;20498;-79
2023/07/01 06:35:01;;;;;;;;;;;;;;;19.39;71.53;92333.41;2055536;70;20073;-79
2023/07/01 06:37:26;;;;;;;;;;;;;;;19.63;71.96;92330.38;2055784;69;20054;-79
2023/07/01 06:39:52;;;;;;;;;;;;;;;19.78;71.43;92334.97;2055568;70;20050;-79
2023/07/01 06:42:18;;;;;;;;;;;;;;;19.90;70.92;92330.94;2068726;69;20055;-79
2023/07/01 06:44:43;;;;;;;;;;;;;;;20.02;70.76;92331.16;2068768;69;20050;-79
2023/07/01 06:47:08;;;;;;;;;;;;;;;20.05;70.75;92326.94;2055567;70;20043;-79
2023/07/01 06:49:34;;;;;;;;;;;;;;;20.14;71.22;92330.69;2055662;69;20086;-79
2023/07/01 06:51:59;;;;;;;;;;;;;;;20.35;69.97;92332.53;2055661;70;20043;-79
2023/07/01 06:54:25;;;;;;;;;;;;;;;20.41;69.95;92326.19;2068649;69;20271;-80
2023/07/01 06:56:50;;;;;;;;;;;;;;;20.48;70.15;92322.81;2055378;70;20050;-79
2023/07/01 06:59:16;;;;;;;;;;;;;;;20.62;68.83;92330.16;2055423;70;20502;-79
2023/07/01 07:01:41;;;;;;;;;;;;;;;20.60;68.08;92328.00;2055532;70;20421;-79
2023/07/01 07:04:07;;;;;;;;;;;;;;;20.57;69.57;92326.50;2055300;70;20504;-79
2023/07/01 07:06:32;;;;;;;;;;;;;;;20.66;67.68;92328.09;2055646;70;20417;-79
2023/07/01 07:08:58;;;;;;;;;;;;;;;20.88;69.11;92324.91;2055745;70;20101;-79
2023/07/01 07:11:24;;;;;;;;;;;;;;;20.73;68.42;92328.94;2055671;70;20051;-78
2023/07/01 07:13:49;;;;;;;;;;;;;;;20.08;67.41;92330.59;2055616;70;20447;-81
2023/07/01 07:16:15;;;;;;;;;;;;;;;19.62;68.09;92328.22;2055576;69;20078;-78
2023/07/01 07:18:40;;;;;;;;;;;;;;;19.74;68.31;92332.03;2055421;70;20046;-77
2023/07/01 07:21:06;;;;;;;;;;;;;;;19.82;67.48;92339.34;2055517;70;20086;-78
2023/07/01 07:23:31;;;;;;;;;;;;;;;20.06;68.00;92334.81;2055771;69;20089;-78
2023/07/01 07:25:57;;;;;;;;;;;;;;;20.31;66.49;92338.91;2055507;70;20146;-79
2023/07/01 07:28:26;;;;;;;;;;;;;;;20.88;66.75;92332.75;2055570;69;20479;-77
2023/07/01 07:30:51;;;;;;;;;;;;;;;20.84;65.34;92332.69;2055468;69;20054;-77
2023/07/01 07:33:24;;;;;;;;;;;;;;;21.08;66.09;92335.97;2055305;70;20405;-79
2023/07/01 07:35:51;;;;;;;;;;;;;;;21.29;64.32;92337.00;2055352;70;20056;-78
2023/07/01 07:38:16;;;;;;;;;;;;;;;21.31;65.92;92337.06;2055498;69;20042;-78
2023/07/01 07:40:43;;;;;;;;;;;;;;;21.41;65.19;92331.50;2055521;70;20548;-79
2023/07/01 07:43:09;;;;;;;;;;;;;;;21.82;65.82;92332.78;2055467;70;20124;-77
2023/07/01 07:45:35;;;;;;;;;;;;;;;21.97;64.52;92330.81;2055825;70;20057;-78
2023/07/01 07:48:00;;;;;;;;;;;;;;;21.98;64.75;92335.13;2055590;70;20054;-77
2023/07/01 07:50:26;;;;;;;;;;;;;;;21.86;63.35;92326.38;2055356;70;20134;-77
2023/07/01 07:52:51;;;;;;;;;;;;;;;21.77;63.62;92331.28;2055359;70;20061;-77
2023/07/01 07:55:17;;;;;;;;;;;;;;;21.29;62.12;92332.00;2055426;70;20486;-77
2023/07/01 07:57:43;;;;;;;;;;;;;;;21.50;60.87;92335.19;2055473;70;20046;-78
2023/07/01 08:00:10;;;;;;;;;;;;;;;21.53;60.72;92337.41;2055370;70;20497;-78
2023/07/01 08:02:44;;;;;;;;;;;;;;;21.64;61.85;92328.94;2067919;69;20054;-77
2023/07/01 08:05:14;;;;;;;;;;;;;;;21.58;61.61;92338.19;2055357;70;20082;-77
2023/07/01 08:07:40;;;;;;;;;;;;;;;21.51;62.12;92331.63;2055346;70;20425;-77
2023/07/01 08:10:06;;;;;;;;;;;;;;;21.49;63.92;92337.34;2055406;70;20594;-77
2023/07/01 08:12:31;;;;;;;;;;;;;;;21.60;63.71;92332.47;2055293;69;20494;-78
2023/07/01 08:14:57;;;;;;;;;;;;;;;21.50;64.26;92332.34;2055650;69;20082;-79
2023/07/01 08:17:22;;;;;;;;;;;;;;;21.57;64.50;92331.72;2068742;69;20142;-78
2023/07/01 08:19:48;;;;;;;;;;;;;;;21.62;62.95;92328.91;2055883;70;20034;-79
2023/07/01 08:25:42;;;;;;;;;;;;;;;21.19;61.68;92319.69;2056109;69;20146;-78
2023/07/01 08:28:08;;;;;;;;;;;;;;;20.97;61.84;92323.63;2055863;69;20053;-78
2023/07/01 08:30:33;;;;;;;;;;;;;;;21.04;64.27;92315.88;2055702;69;20050;-80
2023/07/01 08:32:59;;;;;;;;;;;;;;;21.31;63.31;92309.16;2055663;70;20506;-79
2023/07/01 08:35:26;;;;;;;;;;;;;;;20.99;64.39;92323.66;2055799;70;20501;-78
2023/07/01 08:37:51;;;;;;;;;;;;;;;21.07;62.66;92320.19;2055841;69;20058;-80
2023/07/01 08:40:16;;;;;;;;;;;;;;;21.12;63.61;92324.59;2055388;69;20050;-79
2023/07/01 08:42:54;;;;;;;;;;;;;;;21.21;62.98;92322.56;2055625;69;20065;-79
2023/07/01 08:45:24;;;;;;;;;;;;;;;21.20;63.37;92315.38;2055836;70;20085;-79
2023/07/01 08:47:52;;;;;;;;;;;;;;;21.33;63.74;92311.31;2055563;69;20060;-78
2023/07/01 08:50:20;;;;;;;;;;;;;;;20.90;62.77;92319.22;2055622;70;20132;-79
2023/07/01 08:52:47;;;;;;;;;;;;;;;21.08;63.07;92320.94;2055459;70;20069;-78
2023/07/01 08:55:13;;;;;;;;;;;;;;;20.25;63.72;92315.94;2055900;69;20054;-78
2023/07/01 08:57:39;;;;;;;;;;;;;;;21.05;64.13;92318.03;2055760;70;20408;-78
2023/07/01 09:00:06;;;;;;;;;;;;;;;20.99;63.67;92317.94;2055614;70;20051;-78
2023/07/01 09:02:32;;;;;;;;;;;;;;;21.15;61.85;92313.88;2055448;69;20110;-78
2023/07/01 09:04:58;;;;;;;;;;;;;;;21.29;63.25;92317.69;2068713;69;20140;-77
2023/07/01 09:07:24;;;;;;;;;;;;;;;21.01;61.91;92317.25;2055134;69;20054;-80
2023/07/01 09:09:49;;;;;;;;;;;;;;;21.38;63.29;92312.81;2055479;69;20486;-78
2023/07/01 09:12:15;;;;;;;;;;;;;;;21.29;64.24;92314.09;2055518;70;20090;-79
2023/07/01 09:14:59;;;;;;;;;;;;;;;21.40;62.57;92320.75;2068591;69;20057;-80
2023/07/01 09:17:32;;;;;;;;;;;;;;;21.37;60.98;92319.97;2055585;70;20089;-79
2023/07/01 09:20:00;;;;;;;;;;;;;;;21.80;61.73;92317.69;2055554;70;20085;-79
2023/07/01 09:22:27;;;;;;;;;;;;;;;21.87;63.13;92316.38;2055671;69;20074;-79
2023/07/01 09:24:52;;;;;;;;;;;;;;;22.13;63.40;92323.84;2055679;69;20497;-79
2023/07/01 09:27:17;;;;;;;;;;;;;;;22.15;59.82;92313.16;2055482;69;20068;-79
2023/07/01 09:29:43;;;;;;;;;;;;;;;21.69;60.04;92316.13;2055699;70;20054;-79
2023/07/01 09:32:09;;;;;;;;;;;;;;;20.05;64.60;92326.94;2055672;70;20050;-79
2023/07/01 09:34:55;;;;;;;;;;;;;;;21.33;61.35;92313.47;2055781;70;20058;-79
2023/07/01 09:37:21;;;;;;;;;;;;;;;20.50;64.33;92317.13;2069269;69;20042;-79
2023/07/01 09:39:47;;;;;;;;;;;;;;;21.19;63.55;92313.94;2055790;70;20410;-79
2023/07/01 09:42:13;;;;;;;;;;;;;;;20.48;64.74;92319.94;2055755;70;20046;-79
2023/07/01 09:44:38;;;;;;;;;;;;;;;20.81;64.26;92317.66;2068483;69;20421;-79
2023/07/01 09:47:05;;;;;;;;;;;;;;;20.33;66.25;92314.63;2055337;69;20069;-79
2023/07/01 09:49:39;;;;;;;;;;;;;;;21.18;63.00;92316.09;2055600;70;20489;-79
2023/07/01 09:52:05;;;;;;;;;;;;;;;21.28;64.54;92309.78;2055771;70;20077;-79
2023/07/01 09:54:31;;;;;;;;;;;;;;;20.97;64.02;92311.44;2055745;69;20470;-79
2023/07/01 09:56:57;;;;;;;;;;;;;;;21.02;64.60;92307.25;2055759;69;20050;-80
2023/07/01 09:59:23;;;;;;;;;;;;;;;21.00;62.63;92304.34;2055783;70;20450;-80
2023/07/01 10:01:50;;;;;;;;;;;;;;;20.32;63.71;92305.31;2055717;69;20055;-79
2023/07/01 10:04:18;;;;;;;;;;;;;;;21.30;62.23;92304.09;2068635;69;20076;-81
2023/07/01 10:06:44;;;;;;;;;;;;;;;20.95;61.03;92297.84;2055732;70;20478;-79
2023/07/01 10:09:09;;;;;;;;;;;;;;;20.91;62.44;92294.19;2055651;70;20058;-80
2023/07/01 10:11:35;;;;;;;;;;;;;;;20.39;61.49;92295.47;2055501;70;20119;-80
2023/07/01 10:14:03;;;;;;;;;;;;;;;20.77;60.82;92288.97;2055894;70;20058;-80
2023/07/01 10:16:29;;;;;;;;;;;;;;;20.50;59.88;92284.94;2055787;70;20054;-80
2023/07/01 10:18:55;;;;;;;;;;;;;;;20.44;59.98;92281.97;2055566;70;20085;-81
2023/07/01 10:21:20;;;;;;;;;;;;;;;20.86;59.16;92284.13;2055793;69;20082;-80
2023/07/01 10:23:46;;;;;;;;;;;;;;;20.56;60.58;92288.63;2055825;70;20058;-79
2023/07/01 10:26:30;;;;;;;;;;;;;;;21.00;59.75;92282.19;2055667;70;20145;-78
2023/07/01 10:28:55;;;;;;;;;;;;;;;20.99;59.05;92275.03;2055706;70;20256;-80
2023/07/01 10:31:21;;;;;;;;;;;;;;;21.02;59.06;92282.22;2055679;70;20054;-79
2023/07/01 10:33:46;;;;;;;;;;;;;;;21.19;57.88;92273.88;2055726;70;20082;-78
2023/07/01 10:36:18;;;;;;;;;;;;;;;22.01;57.23;92275.69;2055606;70;20058;-78
2023/07/01 10:38:44;;;;;;;;;;;;;;;21.88;56.57;92265.50;2055753;70;20050;-79
2023/07/01 10:41:09;;;;;;;;;;;;;;;22.76;55.82;92282.22;2055641;70;20063;-80
2023/07/01 10:43:38;;;;;;;;;;;;;;;22.55;53.46;92269.84;2055644;70;20092;-78
2023/07/01 10:46:13;;;;;;;;;;;;;;;23.03;53.73;92276.72;2055596;69;20116;-78
2023/07/01 10:48:42;;;;;;;;;;;;;;;23.56;49.71;92268.47;2055541;70;20417;-81
2023/07/01 10:51:11;;;;;;;;;;;;;;;23.75;49.74;92269.31;2055704;69;20465;-80
2023/07/01 10:53:59;;;;;;;;;;;;;;;23.90;50.79;92270.81;2055626;70;20058;-80
2023/07/01 10:56:25;;;;;;;;;;;;;;;22.64;52.11;92267.78;2055621;69;20055;-81
2023/07/01 10:59:09;;;;;;;;;;;;;;;21.91;53.19;92264.84;2055609;70;20594;-81
2023/07/01 11:01:42;;;;;;;;;;;;;;;22.18;53.78;92260.16;2055626;70;20482;-81
2023/07/01 11:04:07;;;;;;;;;;;;;;;22.49;53.75;92254.72;2055542;69;20090;-80
2023/07/01 11:06:45;;;;;;;;;;;;;;;21.26;53.90;92263.97;2055649;70;20116;-81
2023/07/01 11:09:11;;;;;;;;;;;;;;;21.92;53.66;92251.94;2055644;69;20069;-80
2023/07/01 11:11:36;;;;;;;;;;;;;;;21.84;53.29;92251.84;2055657;70;20078;-79
2023/07/01 11:14:09;;;;;;;;;;;;;;;22.01;53.34;92253.50;2055361;70;20058;-84
2023/07/01 11:16:36;;;;;;;;;;;;;;;22.32;53.01;92253.84;2055757;70;20467;-82
2023/07/01 11:19:05;;;;;;;;;;;;;;;22.46;52.91;92245.38;2055585;70;20050;-82
2023/07/01 11:21:31;;;;;;;;;;;;;;;21.89;53.58;92246.88;2055791;70;20046;-83
2023/07/01 11:24:05;;;;;;;;;;;;;;;21.24;53.95;92246.75;2055427;70;20061;-82
2023/07/01 11:26:34;;;;;;;;;;;;;;;20.81;55.41;92235.41;2060105;70;20137;-81
2023/07/01 11:29:00;;;;;;;;;;;;;;;20.95;54.88;92246.34;2056444;70;20078;-80
2023/07/01 11:31:31;;;;;;;;;;;;;;;21.10;55.50;92235.09;2055657;70;20470;-79
2023/07/01 11:33:57;;;;;;;;;;;;;;;21.39;54.19;92239.09;2055326;69;20515;-80
2023/07/01 11:36:34;;;;;;;;;;;;;;;20.95;55.20;92232.03;2055425;70;20502;-81
2023/07/01 11:39:04;;;;;;;;;;;;;;;21.65;54.19;92241.59;2055483;70;20499;-82
2023/07/01 11:41:31;;;;;;;;;;;;;;;22.12;56.15;92239.28;2055573;69;20046;-80
2023/07/01 11:43:57;;;;;;;;;;;;;;;22.02;55.00;92243.47;2055525;70;20070;-80
2023/07/01 11:46:49;;;;;;;;;;;;;;;21.30;54.59;92241.84;2056479;70;20058;-82
2023/07/01 11:49:31;;;;;;;;;;;;;;;21.30;55.25;92241.09;2068344;69;20061;-80
2023/07/01 11:51:57;;;;;;;;;;;;;;;22.28;51.83;92234.44;2056192;70;20073;-81
2023/07/01 11:54:43;;;;;;;;;;;;;;;22.71;52.22;92236.97;2056196;69;20053;-83
2023/07/01 11:57:16;;;;;;;;;;;;;;;23.12;51.50;92240.91;2068970;69;20054;-80
2023/07/01 11:59:42;;;;;;;;;;;;;;;23.66;49.83;92242.69;2056172;69;20058;-81
2023/07/01 12:02:08;;;;;;;;;;;;;;;24.00;49.07;92241.38;2055911;69;20057;-85
2023/07/01 12:04:35;;;;;;;;;;;;;;;24.76;46.67;92228.63;2056056;70;20050;-80
2023/07/01 12:07:17;;;;;;;;;;;;;;;24.70;46.04;92234.38;2056115;69;20086;-82
2023/07/01 12:09:46;;;;;;;;;;;;;;;24.42;46.46;92232.19;2056329;70;20062;-83
2023/07/01 12:12:16;;;;;;;;;;;;;;;25.26;46.13;92223.59;2055985;70;20042;-82
2023/07/01 12:14:42;;;;;;;;;;;;;;;26.11;44.09;92219.75;2056031;69;20066;-81
2023/07/01 12:17:08;;;;;;;;;;;;;;;24.82;44.66;92216.38;2055896;70;20055;-81
2023/07/01 12:19:34;;;;;;;;;;;;;;;25.53;45.11;92216.34;2055988;69;20050;-80
2023/07/01 12:22:00;;;;;;;;;;;;;;;24.64;45.40;92208.47;2055962;70;20125;-82
2023/07/01 12:24:27;;;;;;;;;;;;;;;24.99;44.49;92212.06;2055968;69;20047;-80
2023/07/01 12:26:54;;;;;;;;;;;;;;;24.14;46.34;92218.44;2055929;70;20053;-80
2023/07/01 12:29:20;;;;;;;;;;;;;;;24.38;46.25;92203.44;2055992;69;20137;-80
2023/07/01 12:31:45;;;;;;;;;;;;;;;24.40;45.94;92206.28;2055932;69;20512;-81
2023/07/01 12:34:11;;;;;;;;;;;;;;;25.19;45.94;92211.34;2055828;69;20069;-80
2023/07/01 12:36:36;;;;;;;;;;;;;;;25.02;45.16;92199.13;2055857;69;20078;-81
2023/07/01 12:39:03;;;;;;;;;;;;;;;25.53;45.08;92199.06;2055983;69;20085;-81
2023/07/01 12:41:31;;;;;;;;;;;;;;;24.96;43.90;92199.09;2055925;69;20062;-81
2023/07/01 12:44:00;;;;;;;;;;;;;;;25.34;43.87;92201.25;2068582;69;20516;-82
2023/07/01 12:46:26;;;;;;;;;;;;;;;24.87;45.09;92202.72;2056010;70;20619;-81
2023/07/01 12:48:52;;;;;;;;;;;;;;;24.95;44.83;92197.69;2055731;70;20133;-81
2023/07/01 12:51:17;;;;;;;;;;;;;;;24.92;44.09;92187.59;2055926;70;20141;-83
2023/07/01 12:53:42;;;;;;;;;;;;;;;24.88;44.16;92195.50;2055879;70;20232;-81
2023/07/01 12:56:08;;;;;;;;;;;;;;;25.24;43.90;92189.75;2055875;70;20155;-82
2023/07/01 12:58:35;;;;;;;;;;;;;;;25.44;42.07;92185.41;2055904;70;20090;-82
2023/07/01 13:01:01;;;;;;;;;;;;;;;26.02;42.46;92189.50;2068760;69;20101;-79
2023/07/01 13:03:26;;;;;;;;;;;;;;;26.10;42.58;92187.28;2055927;69;20140;-81
2023/07/01 13:05:52;;;;;;;;;;;;;;;25.51;41.86;92193.28;2068964;69;20050;-79
2023/07/01 13:08:18;;;;;;;;;;;;;;;24.94;42.77;92189.78;2055844;70;20046;-82